createdAt,value
2022-08-29T00:01:01.763Z,84.85
2022-08-29T00:03:28.874Z,86.24
2022-08-29T00:05:56.265Z,86.17
2022-08-29T00:08:24.028Z,86.78
2022-08-29T00:10:50.530Z,86.63
2022-08-29T00:13:17.334Z,87.49
2022-08-29T00:15:45.145Z,86.71
2022-08-29T00:18:16.270Z,88.48
2022-08-29T00:20:44.034Z,89.14
2022-08-29T00:23:11.205Z,88.48
2022-08-29T00:25:37.830Z,88.74
2022-08-29T00:28:04.726Z,89.90
2022-08-29T00:30:32.521Z,88.99
2022-08-29T00:32:59.177Z,88.18
2022-08-29T00:35:37.035Z,87.52
2022-08-29T00:38:05.873Z,90.20
2022-08-29T00:40:39.082Z,90.43
2022-08-29T00:43:06.686Z,89.70
2022-08-29T00:45:33.782Z,91.22
2022-08-29T00:48:05.587Z,91.57
2022-08-29T00:50:35.648Z,91.16
2022-08-29T00:53:05.762Z,91.04
2022-08-29T00:55:34.465Z,90.74
2022-08-29T00:58:04.885Z,90.60
2022-08-29T01:00:32.158Z,90.30
2022-08-29T01:02:58.728Z,90.69
2022-08-29T01:05:25.657Z,90.55
2022-08-29T01:07:52.470Z,90.33
2022-08-29T01:10:38.610Z,90.73
2022-08-29T01:13:05.819Z,91.23
2022-08-29T01:15:33.734Z,90.98
2022-08-29T01:18:01.220Z,91.24
2022-08-29T01:20:40.416Z,92.21
2022-08-29T01:23:13.755Z,90.80
2022-08-29T01:25:46.476Z,92.71
2022-08-29T01:28:20.158Z,90.96
2022-08-29T01:31:14.346Z,90.08
2022-08-29T01:33:59.411Z,91.16
2022-08-29T01:36:32.285Z,91.01
2022-08-29T01:38:59.942Z,90.24
2022-08-29T01:41:27.087Z,90.08
2022-08-29T01:43:55.746Z,90.14
2022-08-29T01:46:31.689Z,91.80
2022-08-29T01:48:58.619Z,91.86
2022-08-29T01:51:25.667Z,91.32
2022-08-29T01:53:53.153Z,90.68
2022-08-29T01:56:24.245Z,89.58
2022-08-29T01:58:52.040Z,91.25
2022-08-29T02:01:23.981Z,91.14
2022-08-29T02:03:52.205Z,91.67
2022-08-29T02:06:18.972Z,92.28
2022-08-29T02:08:46.209Z,92.83
2022-08-29T02:11:13.796Z,93.69
2022-08-29T02:13:45.873Z,93.04
2022-08-29T02:16:13.328Z,94.75
2022-08-29T02:18:42.278Z,94.13
2022-08-29T02:21:11.494Z,95.10
2022-08-29T02:23:38.657Z,92.66
2022-08-29T02:26:05.932Z,92.37
2022-08-29T02:28:33.586Z,93.16
2022-08-29T02:31:00.162Z,93.05
2022-08-29T02:33:26.878Z,93.44
2022-08-29T02:35:55.511Z,94.31
2022-08-29T02:38:22.882Z,93.48
2022-08-29T02:40:50.169Z,94.42
2022-08-29T02:43:18.189Z,93.26
2022-08-29T02:45:45.042Z,95.63
2022-08-29T02:48:12.447Z,95.12
2022-08-29T02:50:47.546Z,94.77
2022-08-29T02:53:19.002Z,94.05
2022-08-29T02:55:49.003Z,93.60
2022-08-29T02:58:16.037Z,91.73
2022-08-29T03:00:42.938Z,93.22
2022-08-29T03:03:09.826Z,91.58
2022-08-29T03:05:37.269Z,90.14
2022-08-29T03:08:11.237Z,91.58
2022-08-29T03:10:38.075Z,89.38
2022-08-29T03:13:05.901Z,90.65
2022-08-29T03:15:32.497Z,87.99
2022-08-29T03:17:59.163Z,88.54
2022-08-29T03:20:25.999Z,89.08
2022-08-29T03:22:54.187Z,90.04
2022-08-29T03:25:21.958Z,88.73
2022-08-29T03:27:48.616Z,87.01
2022-08-29T03:30:16.765Z,90.45
2022-08-29T03:32:43.297Z,89.78
2022-08-29T03:35:11.191Z,87.86
2022-08-29T03:37:38.200Z,87.08
2022-08-29T03:40:06.372Z,86.07
2022-08-29T03:42:32.890Z,85.26
2022-08-29T03:45:02.866Z,85.69
2022-08-29T03:47:29.376Z,85.95
2022-08-29T03:49:55.892Z,87.07
2022-08-29T03:52:22.383Z,87.79
2022-08-29T03:54:48.854Z,86.67
2022-08-29T03:57:15.430Z,85.29
2022-08-29T03:59:43.011Z,87.35
2022-08-29T04:02:10.021Z,89.08
2022-08-29T04:04:55.261Z,87.82
2022-08-29T04:07:21.736Z,86.64
2022-08-29T04:09:48.481Z,85.20
2022-08-29T04:12:15.263Z,85.19
2022-08-29T04:14:42.759Z,85.14
2022-08-29T04:17:12.484Z,86.50
2022-08-29T04:19:39.711Z,88.06
2022-08-29T04:22:06.962Z,87.44
2022-08-29T04:24:34.567Z,85.59
2022-08-29T04:27:01.378Z,86.10
2022-08-29T04:29:27.982Z,87.62
2022-08-29T04:31:54.558Z,87.38
2022-08-29T04:34:21.481Z,87.00
2022-08-29T04:36:48.309Z,87.68
2022-08-29T04:39:15.082Z,87.06
2022-08-29T04:41:42.438Z,88.02
2022-08-29T04:44:11.238Z,88.61
2022-08-29T04:46:38.749Z,88.18
2022-08-29T04:49:05.462Z,89.30
2022-08-29T04:51:34.526Z,88.46
2022-08-29T04:54:01.171Z,87.56
2022-08-29T04:56:27.719Z,88.28
2022-08-29T04:58:56.316Z,89.88
2022-08-29T05:01:26.815Z,89.00
2022-08-29T05:03:55.156Z,87.23
2022-08-29T05:06:23.171Z,88.90
2022-08-29T05:08:55.034Z,88.28
2022-08-29T05:11:28.606Z,87.95
2022-08-29T05:13:55.145Z,90.30
2022-08-29T05:16:21.815Z,91.45
2022-08-29T05:18:48.531Z,88.18
2022-08-29T05:21:39.320Z,89.80
2022-08-29T05:24:31.422Z,89.26
2022-08-29T05:27:32.615Z,87.26
2022-08-29T05:29:59.542Z,87.24
2022-08-29T05:32:26.113Z,88.18
2022-08-29T05:34:52.706Z,87.48
2022-08-29T05:37:20.873Z,88.47
2022-08-29T05:39:47.950Z,86.71
2022-08-29T05:42:17.064Z,87.61
2022-08-29T05:44:43.747Z,86.82
2022-08-29T05:47:12.690Z,86.96
2022-08-29T05:49:41.265Z,86.23
2022-08-29T05:52:08.169Z,87.01
2022-08-29T05:54:36.612Z,87.17
2022-08-29T05:57:03.648Z,86.79
2022-08-29T05:59:30.170Z,85.16
2022-08-29T06:01:56.901Z,85.88
2022-08-29T06:04:23.444Z,84.50
2022-08-29T06:06:50.866Z,85.64
2022-08-29T06:09:17.556Z,84.91
2022-08-29T06:11:48.073Z,82.95
2022-08-29T06:14:15.511Z,85.10
2022-08-29T06:16:42.477Z,85.14
2022-08-29T06:19:09.578Z,82.48
2022-08-29T06:21:36.174Z,81.74
2022-08-29T06:24:02.931Z,81.77
2022-08-29T06:26:31.494Z,80.85
2022-08-29T06:28:58.053Z,81.64
2022-08-29T06:31:28.141Z,82.61
2022-08-29T06:34:01.355Z,81.59
2022-08-29T06:36:29.062Z,82.02
2022-08-29T06:38:57.374Z,83.47
2022-08-29T06:41:25.066Z,82.13
2022-08-29T06:43:52.433Z,83.20
2022-08-29T06:46:23.729Z,83.10
2022-08-29T06:48:50.926Z,82.23
2022-08-29T06:51:17.634Z,83.13
2022-08-29T06:53:44.477Z,80.82
2022-08-29T06:56:11.562Z,80.52
2022-08-29T06:58:38.812Z,80.52
2022-08-29T07:01:17.360Z,80.11
2022-08-29T07:03:44.002Z,78.30
2022-08-29T07:06:11.369Z,76.67
2022-08-29T07:08:43.651Z,77.96
2022-08-29T07:11:22.106Z,77.83
2022-08-29T07:13:48.618Z,78.22
2022-08-29T07:16:16.957Z,77.14
2022-08-29T07:18:46.123Z,77.42
2022-08-29T07:21:20.138Z,77.55
2022-08-29T07:23:47.408Z,78.17
2022-08-29T07:26:17.803Z,78.33
2022-08-29T07:28:47.362Z,78.44
2022-08-29T07:31:14.390Z,79.05
2022-08-29T07:33:41.022Z,78.66
2022-08-29T07:36:07.866Z,76.42
2022-08-29T07:38:34.718Z,78.16
2022-08-29T07:41:06.208Z,79.02
2022-08-29T07:43:33.454Z,78.97
2022-08-29T07:46:21.513Z,79.32
2022-08-29T07:48:48.637Z,78.56
2022-08-29T07:51:18.034Z,77.60
2022-08-29T07:53:45.562Z,78.37
2022-08-29T07:56:18.401Z,77.23
2022-08-29T07:58:45.233Z,76.23
2022-08-29T08:01:21.319Z,77.86
2022-08-29T08:03:50.163Z,78.03
2022-08-29T08:06:18.183Z,77.80
2022-08-29T08:08:44.791Z,75.93
2022-08-29T08:11:11.371Z,77.03
2022-08-29T08:13:38.153Z,74.36
2022-08-29T08:16:16.706Z,72.19
2022-08-29T08:18:44.236Z,73.25
2022-08-29T08:21:11.584Z,73.40
2022-08-29T08:23:38.954Z,73.35
2022-08-29T08:26:06.215Z,73.08
2022-08-29T08:28:32.836Z,73.24
2022-08-29T08:31:05.068Z,71.97
2022-08-29T08:33:34.961Z,71.82
2022-08-29T08:36:01.865Z,73.25
2022-08-29T08:38:28.414Z,73.18
2022-08-29T08:41:01.179Z,71.68
2022-08-29T08:43:37.759Z,70.17
2022-08-29T08:46:04.361Z,71.81
2022-08-29T08:48:37.246Z,71.37
2022-08-29T08:51:07.880Z,69.23
2022-08-29T08:53:45.995Z,70.22
2022-08-29T08:56:35.662Z,68.82
2022-08-29T08:59:30.030Z,68.74
2022-08-29T09:02:08.864Z,69.38
2022-08-29T09:04:57.861Z,70.98
2022-08-29T09:07:55.933Z,69.72
2022-08-29T09:10:42.952Z,68.70
2022-08-29T09:13:26.263Z,68.04
2022-08-29T09:15:54.967Z,67.10
2022-08-29T09:18:30.635Z,68.21
2022-08-29T09:20:57.474Z,67.36
2022-08-29T09:23:39.874Z,66.92
2022-08-29T09:26:06.759Z,68.53
2022-08-29T09:28:34.925Z,68.25
2022-08-29T09:31:32.421Z,69.50
2022-08-29T09:34:11.912Z,68.52
2022-08-29T09:36:40.025Z,68.12
2022-08-29T09:39:22.297Z,67.83
2022-08-29T09:41:54.838Z,66.46
2022-08-29T09:44:31.575Z,66.95
2022-08-29T09:47:06.743Z,67.32
2022-08-29T09:49:33.984Z,67.74
2022-08-29T09:52:11.330Z,68.34
2022-08-29T09:54:38.311Z,69.50
2022-08-29T09:57:07.871Z,69.57
2022-08-29T09:59:40.724Z,67.92
2022-08-29T10:02:22.890Z,67.97
2022-08-29T10:04:52.772Z,68.09
2022-08-29T10:07:23.170Z,66.35
2022-08-29T10:10:20.406Z,65.89
2022-08-29T10:13:09.284Z,66.17
2022-08-29T10:15:50.920Z,65.93
2022-08-29T10:18:39.733Z,66.38
2022-08-29T10:21:24.966Z,66.72
2022-08-29T10:23:59.702Z,65.96
2022-08-29T10:26:41.549Z,65.22
2022-08-29T10:29:17.932Z,65.17
2022-08-29T10:31:56.764Z,65.60
2022-08-29T10:34:44.185Z,66.13
2022-08-29T10:37:47.788Z,65.55
2022-08-29T10:40:47.279Z,68.00
2022-08-29T10:43:20.037Z,68.07
2022-08-29T10:46:11.540Z,67.62
2022-08-29T10:48:46.582Z,67.82
2022-08-29T10:51:30.518Z,66.72
2022-08-29T10:54:05.293Z,67.92
2022-08-29T10:56:38.593Z,67.69
2022-08-29T10:59:34.353Z,68.29
2022-08-29T11:02:24.775Z,68.42
2022-08-29T11:04:55.147Z,67.35
2022-08-29T11:07:32.189Z,67.01
2022-08-29T11:10:05.578Z,67.54
2022-08-29T11:12:45.270Z,67.11
2022-08-29T11:15:33.871Z,67.26
2022-08-29T11:18:23.577Z,67.19
2022-08-29T11:21:01.121Z,66.93
2022-08-29T11:23:41.333Z,66.81
2022-08-29T11:26:40.698Z,66.33
2022-08-29T11:29:21.382Z,66.68
2022-08-29T11:32:27.155Z,65.95
2022-08-29T11:35:32.012Z,67.00
2022-08-29T11:38:04.434Z,66.29
2022-08-29T11:40:47.869Z,67.12
2022-08-29T11:43:18.689Z,66.70
2022-08-29T11:45:56.111Z,66.04
2022-08-29T11:48:34.658Z,64.90
2022-08-29T11:51:29.001Z,64.07
2022-08-29T11:53:56.007Z,64.11
2022-08-29T11:56:28.374Z,63.91
2022-08-29T11:58:57.251Z,64.68
2022-08-29T12:01:35.977Z,66.68
2022-08-29T12:04:05.015Z,66.00
2022-08-29T12:06:38.100Z,65.96
2022-08-29T12:09:13.325Z,67.87
2022-08-29T12:11:58.969Z,68.04
2022-08-29T12:14:44.846Z,67.19
2022-08-29T12:17:17.419Z,67.71
2022-08-29T12:19:48.449Z,68.45
2022-08-29T12:22:52.109Z,68.75
2022-08-29T12:25:27.666Z,67.76
2022-08-29T12:28:01.080Z,67.72
2022-08-29T12:30:31.119Z,66.31
2022-08-29T12:33:04.159Z,65.83
2022-08-29T12:35:46.670Z,66.02
2022-08-29T12:38:34.782Z,65.33
2022-08-29T12:41:15.049Z,65.17
2022-08-29T12:43:43.887Z,65.48
2022-08-29T12:46:24.206Z,65.44
2022-08-29T12:48:57.794Z,64.60
2022-08-29T12:51:37.983Z,63.96
2022-08-29T12:54:05.107Z,64.01
2022-08-29T12:56:32.581Z,64.12
2022-08-29T12:59:01.332Z,64.34
2022-08-29T13:01:32.626Z,65.96
2022-08-29T13:04:09.954Z,65.42
2022-08-29T13:06:37.177Z,65.51
2022-08-29T13:09:06.125Z,67.25
2022-08-29T13:11:33.539Z,68.63
2022-08-29T13:14:05.586Z,68.62
2022-08-29T13:16:32.902Z,66.96
2022-08-29T13:19:10.812Z,68.31
2022-08-29T13:21:38.165Z,68.09
2022-08-29T13:24:11.060Z,66.78
2022-08-29T13:26:50.455Z,66.97
2022-08-29T13:29:41.994Z,66.94
2022-08-29T13:32:18.908Z,65.42
2022-08-29T13:35:12.973Z,64.92
2022-08-29T13:37:42.162Z,64.21
2022-08-29T13:40:53.765Z,64.08
2022-08-29T13:43:29.480Z,63.46
2022-08-29T13:46:06.205Z,62.82
2022-08-29T13:48:33.232Z,62.09
2022-08-29T13:51:04.732Z,61.05
2022-08-29T13:53:33.651Z,61.27
2022-08-29T13:56:01.483Z,63.02
2022-08-29T13:58:29.564Z,63.10
2022-08-29T14:00:57.141Z,63.29
2022-08-29T14:03:24.727Z,62.48
2022-08-29T14:05:56.364Z,62.59
2022-08-29T14:08:24.538Z,61.88
2022-08-29T14:10:51.803Z,63.91
2022-08-29T14:13:18.379Z,63.37
2022-08-29T14:15:44.947Z,62.53
2022-08-29T14:18:11.893Z,63.21
2022-08-29T14:20:39.098Z,62.19
2022-08-29T14:23:05.850Z,60.92
2022-08-29T14:25:32.378Z,60.62
2022-08-29T14:27:58.883Z,60.81
2022-08-29T14:30:25.651Z,61.15
2022-08-29T14:32:52.211Z,61.74
2022-08-29T14:35:26.824Z,62.34
2022-08-29T14:37:59.584Z,61.95
2022-08-29T14:40:26.262Z,61.22
2022-08-29T14:42:55.737Z,60.84
2022-08-29T14:45:22.274Z,60.81
2022-08-29T14:47:48.819Z,60.22
2022-08-29T14:50:15.722Z,59.85
2022-08-29T14:52:42.310Z,58.74
2022-08-29T14:55:09.221Z,58.68
2022-08-29T14:57:36.071Z,59.06
2022-08-29T15:00:07.802Z,58.04
2022-08-29T15:02:34.412Z,57.05
2022-08-29T15:05:00.939Z,57.95
2022-08-29T15:07:27.719Z,58.60
2022-08-29T15:09:54.290Z,58.00
2022-08-29T15:12:21.721Z,57.05
2022-08-29T15:14:48.384Z,57.44
2022-08-29T15:17:15.000Z,57.57
2022-08-29T15:22:39.114Z,58.20
2022-08-29T15:25:08.162Z,58.62
2022-08-29T15:27:40.363Z,58.19
2022-08-29T15:30:08.867Z,58.26
2022-08-29T15:32:38.648Z,58.49
2022-08-29T15:35:22.507Z,58.33
2022-08-29T15:37:54.974Z,58.25
2022-08-29T15:40:22.307Z,56.82
2022-08-29T15:42:49.025Z,57.30
2022-08-29T15:48:36.216Z,58.09
2022-08-29T15:51:03.541Z,56.87
2022-08-29T15:53:30.091Z,56.85
2022-08-29T15:55:56.672Z,56.06
2022-08-29T15:58:23.249Z,56.27
2022-08-29T16:00:49.833Z,56.33
2022-08-29T16:03:16.660Z,55.91
2022-08-29T16:05:43.837Z,55.86
2022-08-29T16:08:16.629Z,56.05
2022-08-29T16:10:45.847Z,54.61
2022-08-29T16:13:12.648Z,54.97
2022-08-29T16:15:39.232Z,54.78
2022-08-29T16:18:06.770Z,55.66
2022-08-29T16:20:34.106Z,55.13
2022-08-29T16:23:01.262Z,56.38
2022-08-29T16:25:28.758Z,56.88
2022-08-29T16:27:55.449Z,57.38
2022-08-29T16:30:22.240Z,57.82
2022-08-29T16:32:49.924Z,57.16
2022-08-29T16:35:17.143Z,58.20
2022-08-29T16:37:45.032Z,58.50
2022-08-29T16:40:15.341Z,58.45
2022-08-29T16:42:42.267Z,57.41
2022-08-29T16:45:22.209Z,57.18
2022-08-29T16:47:48.769Z,56.08
2022-08-29T16:50:15.300Z,57.14
2022-08-29T16:52:41.905Z,59.02
2022-08-29T16:55:08.997Z,60.10
2022-08-29T16:57:35.730Z,62.11
2022-08-29T17:00:04.764Z,62.38
2022-08-29T17:02:31.385Z,62.18
2022-08-29T17:04:57.961Z,61.22
2022-08-29T17:07:32.430Z,60.76
2022-08-29T17:10:00.702Z,61.76
2022-08-29T17:12:28.958Z,61.52
2022-08-29T17:14:56.127Z,61.19
2022-08-29T17:17:22.625Z,61.52
2022-08-29T17:19:49.121Z,62.07
2022-08-29T17:22:15.985Z,62.28
2022-08-29T17:24:43.927Z,62.92
2022-08-29T17:27:10.698Z,62.11
2022-08-29T17:29:42.122Z,61.62
2022-08-29T17:32:12.110Z,62.93
2022-08-29T17:34:39.750Z,62.47
2022-08-29T17:37:07.258Z,62.49
2022-08-29T17:39:36.900Z,62.75
2022-08-29T17:42:14.299Z,61.42
2022-08-29T17:44:41.036Z,61.51
2022-08-29T17:47:08.192Z,61.53
2022-08-29T17:49:34.749Z,61.53
2022-08-29T17:52:01.558Z,62.06
2022-08-29T17:54:33.203Z,61.62
2022-08-29T17:57:01.763Z,60.45
2022-08-29T17:59:31.300Z,61.62
2022-08-29T18:01:58.711Z,61.55
2022-08-29T18:04:26.879Z,63.14
2022-08-29T18:06:55.148Z,62.25
2022-08-29T18:09:22.896Z,62.37
2022-08-29T18:11:51.328Z,61.37
2022-08-29T18:14:20.535Z,61.85
2022-08-29T18:16:51.824Z,61.75
2022-08-29T18:19:19.141Z,61.30
2022-08-29T18:21:45.893Z,61.49
2022-08-29T18:24:15.195Z,61.58
2022-08-29T18:26:44.524Z,61.12
2022-08-29T18:29:11.140Z,61.65
2022-08-29T18:31:37.944Z,61.32
2022-08-29T18:34:04.686Z,61.67
2022-08-29T18:36:34.041Z,62.09
2022-08-29T18:39:02.397Z,61.78
2022-08-29T18:41:32.428Z,62.24
2022-08-29T18:44:02.084Z,62.60
2022-08-29T18:46:29.005Z,61.75
2022-08-29T18:48:55.634Z,61.97
2022-08-29T18:51:22.261Z,61.32
2022-08-29T18:53:48.840Z,61.80
2022-08-29T18:56:15.968Z,61.73
2022-08-29T18:58:44.425Z,62.28
2022-08-29T19:01:27.640Z,62.19
2022-08-29T19:03:59.391Z,63.10
2022-08-29T19:06:27.416Z,62.25
2022-08-29T19:08:56.629Z,62.29
2022-08-29T19:11:23.591Z,62.91
2022-08-29T19:13:52.459Z,62.67
2022-08-29T19:16:21.018Z,62.06
2022-08-29T19:18:48.226Z,63.00
2022-08-29T19:21:14.906Z,62.48
2022-08-29T19:23:43.992Z,62.33
2022-08-29T19:26:28.700Z,62.38
2022-08-29T19:28:59.028Z,61.97
2022-08-29T19:31:27.788Z,62.23
2022-08-29T19:33:55.041Z,62.86
2022-08-29T19:36:21.878Z,62.33
2022-08-29T19:38:48.493Z,62.98
2022-08-29T19:41:15.674Z,63.48
2022-08-29T19:43:42.551Z,63.96
2022-08-29T19:46:20.794Z,63.77
2022-08-29T19:48:48.644Z,64.02
2022-08-29T19:51:19.754Z,64.14
2022-08-29T19:53:54.396Z,64.15
2022-08-29T19:56:24.471Z,64.49
2022-08-29T19:58:53.985Z,63.92
2022-08-29T20:01:21.230Z,64.45
2022-08-29T20:03:48.058Z,65.92
2022-08-29T20:06:14.688Z,66.14
2022-08-29T20:09:05.291Z,65.61
2022-08-29T20:11:34.142Z,65.87
2022-08-29T20:14:14.154Z,64.35
2022-08-29T20:16:41.963Z,66.51
2022-08-29T20:19:10.690Z,66.69
2022-08-29T20:21:37.518Z,68.08
2022-08-29T20:24:05.118Z,67.59
2022-08-29T20:26:34.830Z,68.30
2022-08-29T20:29:04.714Z,68.45
2022-08-29T20:31:31.567Z,67.94
2022-08-29T20:33:58.270Z,67.60
2022-08-29T20:36:44.035Z,67.79
2022-08-29T20:39:13.284Z,67.57
2022-08-29T20:41:40.264Z,67.13
2022-08-29T20:44:07.837Z,67.54
2022-08-29T20:46:42.592Z,67.86
2022-08-29T20:49:10.905Z,67.04
2022-08-29T20:51:39.026Z,67.94
2022-08-29T20:54:06.693Z,68.72
2022-08-29T20:56:33.347Z,68.52
2022-08-29T20:59:00.102Z,67.97
2022-08-29T21:01:27.827Z,68.20
2022-08-29T21:04:13.358Z,68.80
2022-08-29T21:06:40.068Z,69.10
2022-08-29T21:09:07.766Z,67.65
2022-08-29T21:11:34.997Z,68.11
2022-08-29T21:14:02.198Z,68.78
2022-08-29T21:16:29.715Z,69.53
2022-08-29T21:18:57.102Z,70.19
2022-08-29T21:21:25.058Z,69.93
2022-08-29T21:23:53.686Z,69.37
2022-08-29T21:26:20.650Z,70.29
2022-08-29T21:28:47.375Z,70.23
2022-08-29T21:31:14.141Z,69.97
2022-08-29T21:33:43.885Z,69.95
2022-08-29T21:36:15.894Z,70.73
2022-08-29T21:38:42.470Z,70.52
2022-08-29T21:41:32.721Z,70.67
2022-08-29T21:44:02.589Z,70.72
2022-08-29T22:23:17.999Z,72.57
2022-08-29T22:25:53.825Z,72.67
2022-08-29T22:28:20.724Z,72.67
2022-08-29T22:30:48.708Z,72.99
2022-08-29T22:33:16.385Z,73.33
2022-08-29T22:35:43.494Z,73.02
2022-08-29T22:38:10.005Z,72.70
2022-08-29T22:40:36.567Z,72.29
2022-08-29T22:43:03.284Z,73.25
2022-08-29T22:45:36.939Z,73.17
2022-08-29T22:48:25.223Z,73.83
2022-08-29T23:01:38.108Z,75.16
2022-08-29T23:04:05.470Z,75.20
2022-08-29T23:06:32.243Z,73.96
2022-08-29T23:08:58.867Z,73.86
2022-08-29T23:11:26.649Z,73.30
2022-08-29T23:13:54.626Z,74.28
2022-08-29T23:16:22.565Z,73.66
2022-08-29T23:18:49.229Z,73.22
2022-08-29T23:21:16.130Z,73.87
2022-08-29T23:23:53.458Z,74.07
